메인 페이지
METAR-TAF:

METAR-TAF

공항 :

두바이, 아랍에미리트

두바이 국제공항

위도: 25-15-10N, 경도: 055-21-52E, 고도: 8m

현재 날씨관측

예보는 49분 전, 10:00시(UTC)에 발표되었습니다.
16kt
온도 31°C
습도 46%
기압 1010 hPa
시정: 6000m

METAR: OMDB 251000Z 28016KT 6000 NSC 31/18 Q1010 NOSIG

시각: 14:49 (10:49 UTC)

예보

예보는 5 시간 53분 전, 04:56시(UTC)에 발표되었습니다.
예보 대상 시간: 25일 06시부터 26일 12시까지 (UTC)
남남서5kt
시정 10km 이상
1500m 미만 상공 구름 및 적란운 없음
전환 중
25일 07시부터 25일 09시까지 (UTC)
북서17kt
전환 중
25일 15시부터 25일 17시까지 (UTC)
남동5kt
전환 중
26일 07시부터 26일 09시까지 (UTC)
북서13kt

TAF: OMDB 250456Z 2506/2612 20005KT CAVOK BECMG 2507/2509 32017KT BECMG 2515/2517 14005KT BECMG 2607/2609 32013KT

4,000개 이상의 공항 관측 자료 및 예보 (METAR 및 TAF 보고).

지도상에서 검색 가능한 기상관측소가 노란 점과 빨간 점으로 표시되어 있습니다.

기상관측소 명을 보려면 표시 위로 마우스를 이동하세요.

날씨 관측과 예보를 보려면 클릭하세요.

지도 변경 : 확대하려면 엑스 표시가 있는 녹색 버튼, 축소하려면 빼기 표시가 있는 녹색 버튼, 다음 페이지의 지도를 보려면 녹색 화살표를 클릭하세요.


METAR-TAF: